createdAt,value
2023-08-29T00:00:53.931Z,99066.50
2023-08-29T00:03:20.566Z,99069.88
2023-08-29T00:05:47.295Z,99076.84
2023-08-29T00:08:13.958Z,99075.88
2023-08-29T00:10:40.606Z,99076.69
2023-08-29T00:13:07.170Z,99076.69
2023-08-29T00:15:33.889Z,99078.41
2023-08-29T00:18:01.459Z,99074.91
2023-08-29T00:20:28.155Z,99085.25
2023-08-29T00:22:54.792Z,99091.31
2023-08-29T00:25:21.405Z,99092.16
2023-08-29T00:27:47.999Z,99098.09
2023-08-29T00:30:14.711Z,99089.41
2023-08-29T00:32:43.100Z,99088.53
2023-08-29T00:35:09.936Z,99086.81
2023-08-29T00:37:36.568Z,99085.09
2023-08-29T00:40:03.381Z,99085.03
2023-08-29T00:42:30.670Z,99076.34
2023-08-29T00:44:57.277Z,99069.28
2023-08-29T00:47:24.116Z,99069.19
2023-08-29T00:49:51.352Z,99065.84
2023-08-29T00:52:18.054Z,99053.78
2023-08-29T00:54:44.645Z,99063.38
2023-08-29T00:57:11.378Z,99057.22
2023-08-29T00:59:38.167Z,99057.22
2023-08-29T01:02:05.313Z,99050.31
2023-08-29T01:04:32.221Z,99044.31
2023-08-29T01:06:59.217Z,99040.84
2023-08-29T01:09:27.041Z,99041.75
2023-08-29T01:12:03.944Z,99049.56
2023-08-29T01:14:30.504Z,99050.47
2023-08-29T01:17:04.859Z,99046.25
2023-08-29T01:19:33.007Z,99054.13
2023-08-29T01:22:09.044Z,99062.00
2023-08-29T01:24:42.222Z,99071.53
2023-08-29T01:27:09.142Z,99078.47
2023-08-29T01:29:36.757Z,99068.94
2023-08-29T01:32:04.383Z,99065.47
2023-08-29T01:34:31.062Z,99075.00
2023-08-29T01:36:57.645Z,99076.75
2023-08-29T01:39:24.293Z,99081.13
2023-08-29T01:41:50.912Z,99083.75
2023-08-29T01:44:17.526Z,99086.31
2023-08-29T01:46:44.108Z,99084.59
2023-08-29T01:49:10.799Z,99082.03
2023-08-29T01:51:37.552Z,99080.28
2023-08-29T01:54:04.428Z,99073.34
2023-08-29T01:56:31.595Z,99082.84
2023-08-29T01:59:00.106Z,99080.25
2023-08-29T02:01:26.861Z,99086.28
2023-08-29T02:03:53.597Z,99079.25
2023-08-29T02:06:20.475Z,99076.63
2023-08-29T02:08:47.249Z,99075.72
2023-08-29T02:11:13.915Z,99079.97
2023-08-29T02:13:40.487Z,99077.34
2023-08-29T02:16:07.105Z,99067.78
2023-08-29T02:18:33.783Z,99078.13
2023-08-29T02:21:00.408Z,99072.94
2023-08-29T02:23:27.033Z,99068.59
2023-08-29T02:26:11.546Z,99074.03
2023-08-29T02:28:39.178Z,99080.25
2023-08-29T02:31:07.098Z,99071.63
2023-08-29T02:33:36.482Z,99082.09
2023-08-29T02:36:05.673Z,99073.53
2023-08-29T02:38:32.628Z,99071.88
2023-08-29T02:40:59.262Z,99081.38
2023-08-29T02:43:26.632Z,99089.16
2023-08-29T02:45:53.329Z,99087.38
2023-08-29T02:48:19.939Z,99089.00
2023-08-29T02:50:49.502Z,99085.53
2023-08-29T02:53:19.516Z,99087.25
2023-08-29T02:55:46.328Z,99079.38
2023-08-29T02:58:12.883Z,99085.41
2023-08-29T03:00:39.502Z,99083.63
2023-08-29T03:03:06.280Z,99081.88
2023-08-29T03:05:33.431Z,99077.59
2023-08-29T03:08:00.703Z,99078.47
2023-08-29T03:10:27.398Z,99075.06
2023-08-29T03:12:54.277Z,99079.34
2023-08-29T03:15:21.005Z,99086.28
2023-08-29T03:17:48.553Z,99087.16
2023-08-29T03:20:16.911Z,99085.50
2023-08-29T03:22:43.671Z,99080.38
2023-08-29T03:25:10.788Z,99076.00
2023-08-29T03:27:37.502Z,99070.72
2023-08-29T03:30:04.347Z,99072.47
2023-08-29T03:32:32.026Z,99085.47
2023-08-29T03:34:59.649Z,99083.78
2023-08-29T03:37:26.344Z,99083.88
2023-08-29T03:39:55.724Z,99082.09
2023-08-29T03:42:22.289Z,99069.91
2023-08-29T03:44:48.983Z,99068.06
2023-08-29T03:47:15.579Z,99072.31
2023-08-29T03:49:42.225Z,99066.97
2023-08-29T03:52:08.815Z,99072.94
2023-08-29T03:54:35.420Z,99073.75
2023-08-29T03:57:02.012Z,99065.94
2023-08-29T03:59:28.586Z,99070.19
2023-08-29T04:01:55.249Z,99068.44
2023-08-29T04:04:22.061Z,99064.88
2023-08-29T04:06:48.756Z,99066.44
2023-08-29T04:09:15.699Z,99063.75
2023-08-29T04:11:42.539Z,99068.81
2023-08-29T04:14:09.273Z,99060.78
2023-08-29T04:16:36.039Z,99068.50
2023-08-29T04:19:02.744Z,99063.19
2023-08-29T04:21:30.162Z,99056.25
2023-08-29T04:23:56.763Z,99060.50
2023-08-29T04:26:23.388Z,99057.00
2023-08-29T04:28:50.209Z,99063.94
2023-08-29T04:31:18.648Z,99066.47
2023-08-29T04:33:45.290Z,99062.81
2023-08-29T04:36:11.945Z,99055.75
2023-08-29T04:38:38.620Z,99060.88
2023-08-29T04:41:05.288Z,99057.28
2023-08-29T04:43:31.882Z,99067.63
2023-08-29T04:45:58.484Z,99064.88
2023-08-29T04:48:25.206Z,99070.88
2023-08-29T04:50:51.900Z,99080.31
2023-08-29T04:53:18.487Z,99082.00
2023-08-29T04:55:45.110Z,99086.19
2023-08-29T04:58:11.683Z,99091.34
2023-08-29T05:00:38.380Z,99087.75
2023-08-29T05:03:05.809Z,99088.50
2023-08-29T05:05:32.643Z,99093.84
2023-08-29T05:07:59.378Z,99092.88
2023-08-29T05:10:26.202Z,99093.53
2023-08-29T05:12:53.275Z,99078.66
2023-08-29T05:15:19.915Z,99088.94
2023-08-29T05:17:46.631Z,99087.91
2023-08-29T05:20:13.748Z,99100.91
2023-08-29T05:22:40.437Z,99098.25
2023-08-29T05:25:07.520Z,99100.81
2023-08-29T05:27:34.865Z,99092.00
2023-08-29T05:30:01.436Z,99092.81
2023-08-29T05:32:28.186Z,99090.13
2023-08-29T05:34:54.811Z,99085.72
2023-08-29T05:37:21.461Z,99083.16
2023-08-29T05:39:48.063Z,99080.53
2023-08-29T05:42:14.725Z,99067.53
2023-08-29T05:44:41.456Z,99066.66
2023-08-29T05:47:08.055Z,99063.94
2023-08-29T05:49:35.320Z,99060.25
2023-08-29T05:52:01.905Z,99052.34
2023-08-29T05:54:29.519Z,99061.69
2023-08-29T05:56:56.167Z,99064.25
2023-08-29T05:59:22.763Z,99059.88
2023-08-29T06:01:49.877Z,99065.97
2023-08-29T06:04:16.518Z,99059.88
2023-08-29T06:06:44.745Z,99060.63
2023-08-29T06:09:11.553Z,99067.53
2023-08-29T06:11:38.531Z,99069.13
2023-08-29T06:14:05.143Z,99078.75
2023-08-29T06:16:31.827Z,99078.56
2023-08-29T06:18:58.505Z,99077.59
2023-08-29T06:21:25.141Z,99074.81
2023-08-29T06:23:51.830Z,99079.91
2023-08-29T06:26:18.413Z,99084.28
2023-08-29T06:28:45.182Z,99085.88
2023-08-29T06:31:11.821Z,99086.72
2023-08-29T06:33:38.789Z,99093.66
2023-08-29T06:36:05.959Z,99089.28
2023-08-29T06:38:34.708Z,99089.97
2023-08-29T06:41:02.319Z,99077.50
2023-08-29T06:43:28.893Z,99091.28
2023-08-29T06:45:55.549Z,99092.06
2023-08-29T06:48:22.154Z,99098.81
2023-08-29T06:50:48.778Z,99093.50
2023-08-29T06:53:15.409Z,99102.09
2023-08-29T06:55:41.995Z,99099.44
2023-08-29T06:58:10.732Z,99102.91
2023-08-29T07:00:37.506Z,99104.56
2023-08-29T07:03:05.600Z,99107.00
2023-08-29T07:05:32.463Z,99102.44
2023-08-29T07:08:00.795Z,99100.63
2023-08-29T07:10:27.564Z,99099.63
2023-08-29T07:12:54.163Z,99091.59
2023-08-29T07:15:20.767Z,99094.03
2023-08-29T07:17:47.365Z,99099.91
2023-08-29T07:20:14.683Z,99098.78
2023-08-29T07:22:44.743Z,99094.16
2023-08-29T07:25:12.326Z,99095.56
2023-08-29T07:27:38.952Z,99099.78
2023-08-29T07:30:05.979Z,99102.22
2023-08-29T07:32:32.647Z,99094.97
2023-08-29T07:34:59.689Z,99097.34
2023-08-29T07:37:26.330Z,99096.22
2023-08-29T07:39:52.888Z,99099.34
2023-08-29T07:42:19.433Z,99104.28
2023-08-29T07:44:46.125Z,99102.28
2023-08-29T07:47:15.512Z,99102.09
2023-08-29T07:49:43.001Z,99102.03
2023-08-29T07:52:09.810Z,99100.38
2023-08-29T07:54:36.670Z,99096.88
2023-08-29T07:57:03.498Z,99095.88
2023-08-29T07:59:30.154Z,99102.84
2023-08-29T08:01:57.266Z,99103.78
2023-08-29T08:04:24.503Z,99110.94
2023-08-29T08:06:54.276Z,99119.81
2023-08-29T08:09:20.950Z,99121.00
2023-08-29T08:11:47.753Z,99115.03
2023-08-29T08:14:14.473Z,99106.41
2023-08-29T08:16:41.327Z,99111.63
2023-08-29T08:19:08.768Z,99111.63
2023-08-29T08:21:35.585Z,99115.03
2023-08-29T08:24:02.538Z,99120.97
2023-08-29T08:26:29.252Z,99116.38
2023-08-29T08:28:56.159Z,99123.34
2023-08-29T08:31:23.042Z,99121.69
2023-08-29T08:33:49.706Z,99118.22
2023-08-29T08:36:16.344Z,99121.75
2023-08-29T08:38:42.925Z,99126.09
2023-08-29T08:41:13.741Z,99126.19
2023-08-29T08:43:42.448Z,99134.16
2023-08-29T08:46:09.696Z,99125.25
2023-08-29T08:48:37.607Z,99127.72
2023-08-29T08:51:05.383Z,99123.34
2023-08-29T08:53:32.152Z,99119.81
2023-08-29T08:55:58.789Z,99121.56
2023-08-29T08:58:25.478Z,99116.28
2023-08-29T09:00:52.907Z,99119.81
2023-08-29T09:03:21.227Z,99117.41
2023-08-29T09:05:48.054Z,99116.63
2023-08-29T09:08:14.857Z,99107.97
2023-08-29T09:10:41.536Z,99106.16
2023-08-29T09:13:14.891Z,99109.47
2023-08-29T09:15:41.637Z,99108.47
2023-08-29T09:18:09.908Z,99111.03
2023-08-29T09:20:36.711Z,99111.03
2023-08-29T09:23:03.312Z,99114.59
2023-08-29T09:25:29.932Z,99116.53
2023-08-29T09:27:56.782Z,99121.84
2023-08-29T09:30:24.232Z,99113.09
2023-08-29T09:32:54.143Z,99115.47
2023-08-29T09:35:23.308Z,99115.19
2023-08-29T09:37:54.334Z,99120.47
2023-08-29T09:40:38.265Z,99121.28
2023-08-29T09:43:06.454Z,99116.72
2023-08-29T09:45:34.105Z,99116.44
2023-08-29T09:48:04.839Z,99117.03
2023-08-29T09:50:32.155Z,99108.91
2023-08-29T09:52:59.279Z,99111.22
2023-08-29T09:55:27.234Z,99104.81
2023-08-29T09:57:54.431Z,99104.50
2023-08-29T10:00:21.914Z,99100.88
2023-08-29T10:02:49.434Z,99101.66
2023-08-29T10:05:17.214Z,99097.09
2023-08-29T10:07:47.058Z,99100.34
2023-08-29T10:10:13.939Z,99100.28
2023-08-29T10:12:40.856Z,99108.53
2023-08-29T10:15:09.355Z,99100.00
2023-08-29T10:17:36.839Z,99112.56
2023-08-29T10:20:11.461Z,99117.03
2023-08-29T10:22:38.763Z,99107.69
2023-08-29T10:25:05.674Z,99114.00
2023-08-29T10:27:32.932Z,99120.22
2023-08-29T10:30:00.031Z,99121.94
2023-08-29T10:32:28.100Z,99117.66
2023-08-29T10:34:54.848Z,99114.09
2023-08-29T10:37:22.303Z,99120.66
2023-08-29T10:39:52.201Z,99114.41
2023-08-29T10:42:19.158Z,99126.44
2023-08-29T10:44:47.824Z,99128.13
2023-08-29T10:47:24.910Z,99126.44
2023-08-29T10:50:06.842Z,99134.00
2023-08-29T10:52:37.735Z,99132.91
2023-08-29T10:55:07.901Z,99131.06
2023-08-29T10:57:34.520Z,99132.53
2023-08-29T11:00:01.306Z,99140.94
2023-08-29T11:02:28.905Z,99141.59
2023-08-29T11:05:04.919Z,99139.09
2023-08-29T11:07:32.610Z,99146.19
2023-08-29T11:10:15.743Z,99141.19
2023-08-29T11:13:01.290Z,99133.56
2023-08-29T11:15:46.729Z,99134.63
2023-08-29T11:18:25.455Z,99135.34
2023-08-29T11:20:52.927Z,99132.66
2023-08-29T11:23:20.439Z,99127.47
2023-08-29T11:25:53.545Z,99129.13
2023-08-29T11:28:20.152Z,99132.41
2023-08-29T11:30:47.150Z,99130.34
2023-08-29T11:33:14.091Z,99123.25
2023-08-29T11:35:40.719Z,99121.47
2023-08-29T11:38:07.739Z,99118.97
2023-08-29T11:40:50.304Z,99127.78
2023-08-29T11:43:45.261Z,99132.28
2023-08-29T11:46:09.377Z,99139.47
2023-08-29T11:48:36.201Z,99135.34
2023-08-29T11:51:08.763Z,99134.63
2023-08-29T11:53:37.562Z,99142.53
2023-08-29T11:56:05.245Z,99145.19
2023-08-29T11:58:33.080Z,99141.91
2023-08-29T12:01:02.084Z,99138.44
2023-08-29T12:03:28.881Z,99135.09
2023-08-29T12:05:59.166Z,99133.31
2023-08-29T12:08:39.510Z,99131.63
2023-08-29T12:11:07.779Z,99128.22
2023-08-29T12:13:35.872Z,99128.13
2023-08-29T12:16:03.703Z,99124.63
2023-08-29T12:18:30.544Z,99132.53
2023-08-29T12:21:13.132Z,99121.44
2023-08-29T12:23:39.731Z,99114.50
2023-08-29T12:26:06.433Z,99117.31
2023-08-29T12:28:33.141Z,99121.00
2023-08-29T12:30:59.843Z,99132.53
2023-08-29T12:33:26.499Z,99131.06
2023-08-29T12:35:53.150Z,99136.50
2023-08-29T12:38:19.768Z,99128.09
2023-08-29T12:40:46.587Z,99132.66
2023-08-29T12:43:14.225Z,99132.91
2023-08-29T12:45:52.748Z,99128.50
2023-08-29T12:48:25.467Z,99126.53
2023-08-29T12:50:52.131Z,99130.03
2023-08-29T12:53:18.729Z,99126.84
2023-08-29T12:55:45.465Z,99124.72
2023-08-29T12:58:12.099Z,99130.06
2023-08-29T13:00:39.427Z,99125.69
2023-08-29T13:03:06.872Z,99124.84
2023-08-29T13:05:33.669Z,99130.03
2023-08-29T13:08:00.350Z,99124.00
2023-08-29T13:10:27.064Z,99130.06
2023-08-29T13:12:53.763Z,99129.13
2023-08-29T13:15:20.383Z,99129.94
2023-08-29T13:17:48.252Z,99136.97
2023-08-29T13:20:14.954Z,99131.00
2023-08-29T13:22:41.907Z,99134.75
2023-08-29T13:25:08.798Z,99127.94
2023-08-29T13:27:36.097Z,99128.00
2023-08-29T13:30:02.912Z,99129.66
2023-08-29T13:32:31.978Z,99123.50
2023-08-29T13:34:58.752Z,99134.75
2023-08-29T13:37:25.758Z,99139.09
2023-08-29T13:39:59.145Z,99136.47
2023-08-29T13:42:25.938Z,99138.19
2023-08-29T13:44:56.884Z,99141.59
2023-08-29T13:47:23.677Z,99142.31
2023-08-29T13:49:50.451Z,99139.59
2023-08-29T13:52:17.001Z,99138.59
2023-08-29T13:54:43.603Z,99135.84
2023-08-29T13:57:10.223Z,99142.84
2023-08-29T13:59:36.809Z,99141.31
2023-08-29T14:02:03.727Z,99145.00
2023-08-29T14:04:30.340Z,99135.84
2023-08-29T14:06:57.867Z,99138.72
2023-08-29T14:09:24.528Z,99132.81
2023-08-29T14:11:51.268Z,99137.47
2023-08-29T14:14:18.393Z,99128.69
2023-08-29T14:16:45.011Z,99121.66
2023-08-29T14:19:11.717Z,99112.69
2023-08-29T14:21:41.667Z,99103.63
2023-08-29T14:24:08.902Z,99105.00
2023-08-29T14:26:35.537Z,99110.09
2023-08-29T14:29:02.279Z,99111.81
2023-08-29T14:31:28.937Z,99115.22
2023-08-29T14:33:55.623Z,99121.44
2023-08-29T14:36:22.306Z,99122.50
2023-08-29T14:38:48.986Z,99120.00
2023-08-29T14:41:15.736Z,99118.22
2023-08-29T14:43:42.718Z,99126.00
2023-08-29T14:46:09.758Z,99128.59
2023-08-29T14:48:38.033Z,99128.53
2023-08-29T14:51:08.133Z,99132.09
2023-08-29T14:53:35.429Z,99132.00
2023-08-29T14:56:03.783Z,99134.44
2023-08-29T14:58:32.716Z,99143.13
2023-08-29T15:00:59.447Z,99137.91
2023-08-29T15:03:26.286Z,99144.81
2023-08-29T15:05:59.644Z,99145.63
2023-08-29T15:08:27.267Z,99141.19
2023-08-29T15:10:54.542Z,99134.03
2023-08-29T15:13:21.846Z,99149.75
2023-08-29T15:15:48.722Z,99145.34
2023-08-29T15:18:15.935Z,99137.50
2023-08-29T15:20:43.564Z,99140.84
2023-08-29T15:23:11.005Z,99139.03
2023-08-29T15:25:37.755Z,99140.75
2023-08-29T15:28:04.854Z,99140.84
2023-08-29T15:30:32.349Z,99148.13
2023-08-29T15:32:59.424Z,99151.53
2023-08-29T15:35:26.061Z,99148.00
2023-08-29T15:37:52.702Z,99143.75
2023-08-29T15:40:19.427Z,99137.66
2023-08-29T15:42:46.206Z,99143.63
2023-08-29T15:45:12.796Z,99139.13
2023-08-29T15:47:39.616Z,99140.13
2023-08-29T15:50:06.630Z,99142.78
2023-08-29T15:52:33.255Z,99153.25
2023-08-29T15:54:59.852Z,99160.41
2023-08-29T15:57:26.737Z,99156.16
2023-08-29T15:59:53.401Z,99151.84
2023-08-29T16:02:20.007Z,99157.06
2023-08-29T16:04:46.854Z,99153.59
2023-08-29T16:07:13.516Z,99143.13
2023-08-29T16:09:40.094Z,99142.34
2023-08-29T16:12:06.981Z,99145.91
2023-08-29T16:14:33.682Z,99149.44
2023-08-29T16:17:02.667Z,99146.84
2023-08-29T16:19:29.613Z,99156.50
2023-08-29T16:21:56.255Z,99159.91
2023-08-29T16:24:22.910Z,99158.09
2023-08-29T16:26:49.586Z,99164.22
2023-08-29T16:29:17.249Z,99164.34
2023-08-29T16:31:44.249Z,99167.75
2023-08-29T16:34:10.892Z,99172.84
2023-08-29T16:36:37.618Z,99173.78
2023-08-29T16:39:06.187Z,99173.09
2023-08-29T16:41:32.895Z,99174.16
2023-08-29T16:43:59.766Z,99174.31
2023-08-29T16:46:26.940Z,99174.38
2023-08-29T16:48:53.630Z,99173.47
2023-08-29T16:51:20.282Z,99174.31
2023-08-29T16:53:46.898Z,99172.56
2023-08-29T16:56:13.504Z,99173.47
2023-08-29T16:58:40.086Z,99176.19
2023-08-29T17:01:07.001Z,99170.94
2023-08-29T17:03:33.706Z,99178.75
2023-08-29T17:06:00.400Z,99185.78
2023-08-29T17:08:27.013Z,99191.03
2023-08-29T17:10:53.672Z,99193.63
2023-08-29T17:13:20.481Z,99188.47
2023-08-29T17:15:47.097Z,99192.84
2023-08-29T17:18:13.878Z,99187.63
2023-08-29T17:20:40.496Z,99186.03
2023-08-29T17:23:07.126Z,99180.97
2023-08-29T17:25:33.911Z,99182.81
2023-08-29T17:28:00.556Z,99178.53
2023-08-29T17:30:27.200Z,99180.22
2023-08-29T17:32:53.843Z,99172.56
2023-08-29T17:35:20.463Z,99182.31
2023-08-29T17:37:47.138Z,99167.63
2023-08-29T17:40:14.202Z,99172.97
2023-08-29T17:42:41.068Z,99177.31
2023-08-29T17:45:09.501Z,99173.06
2023-08-29T17:47:36.720Z,99173.13
2023-08-29T17:50:04.505Z,99178.38
2023-08-29T17:52:31.432Z,99174.88
2023-08-29T17:54:58.367Z,99177.44
2023-08-29T17:57:25.188Z,99178.28
2023-08-29T18:00:00.637Z,99172.97
2023-08-29T18:02:27.690Z,99169.34
2023-08-29T18:04:54.593Z,99177.19
2023-08-29T18:07:21.713Z,99183.38
2023-08-29T18:10:06.199Z,99179.81
2023-08-29T18:12:33.476Z,99187.50
2023-08-29T18:15:00.500Z,99190.91
2023-08-29T18:17:27.256Z,99178.69
2023-08-29T18:19:54.292Z,99179.47
2023-08-29T18:22:21.112Z,99175.09
2023-08-29T18:24:47.762Z,99179.38
2023-08-29T18:27:14.449Z,99170.53
2023-08-29T18:29:41.603Z,99170.44
2023-08-29T18:32:09.335Z,99177.34
2023-08-29T18:34:36.769Z,99169.47
2023-08-29T18:37:04.662Z,99166.78
2023-08-29T18:39:31.391Z,99159.88
2023-08-29T18:41:58.135Z,99159.88
2023-08-29T18:44:24.812Z,99158.06
2023-08-29T18:46:52.073Z,99160.53
2023-08-29T18:49:18.856Z,99161.38
2023-08-29T18:51:45.467Z,99166.47
2023-08-29T18:54:12.082Z,99167.25
2023-08-29T18:56:38.740Z,99174.13
2023-08-29T18:59:05.374Z,99156.50
2023-08-29T19:01:31.991Z,99152.22
2023-08-29T19:03:58.704Z,99152.28
2023-08-29T19:06:25.361Z,99159.28
2023-08-29T19:08:52.832Z,99152.28
2023-08-29T19:11:19.497Z,99148.84
2023-08-29T19:13:46.225Z,99147.09
2023-08-29T19:16:12.991Z,99149.56
2023-08-29T19:18:40.449Z,99146.78
2023-08-29T19:21:07.433Z,99145.81
2023-08-29T19:23:34.090Z,99148.41
2023-08-29T19:26:00.793Z,99153.75
2023-08-29T19:28:27.479Z,99159.00
2023-08-29T19:30:57.206Z,99155.47
2023-08-29T19:33:23.956Z,99159.00
2023-08-29T19:35:50.783Z,99164.34
2023-08-29T19:38:18.099Z,99162.63
2023-08-29T19:40:44.782Z,99157.41
2023-08-29T19:43:11.474Z,99159.78
2023-08-29T19:45:38.125Z,99159.00
2023-08-29T19:48:05.509Z,99165.09
2023-08-29T19:50:32.385Z,99167.75
2023-08-29T19:52:59.185Z,99164.34
2023-08-29T19:55:29.768Z,99156.50
2023-08-29T19:57:56.476Z,99152.91
2023-08-29T20:00:23.056Z,99147.63
2023-08-29T20:02:49.729Z,99144.16
2023-08-29T20:05:19.676Z,99148.38
2023-08-29T20:07:47.161Z,99152.66
2023-08-29T20:10:13.822Z,99143.91
2023-08-29T20:12:41.704Z,99149.22
2023-08-29T20:15:08.821Z,99146.59
2023-08-29T20:17:35.414Z,99150.88
2023-08-29T20:20:02.237Z,99152.56
2023-08-29T20:22:29.953Z,99155.06
2023-08-29T20:24:56.606Z,99149.75
2023-08-29T20:27:23.231Z,99151.41
2023-08-29T20:29:50.467Z,99153.25
2023-08-29T20:32:17.411Z,99163.72
2023-08-29T20:34:44.056Z,99163.72
2023-08-29T20:37:10.799Z,99163.72
2023-08-29T20:39:38.806Z,99160.19
2023-08-29T20:42:05.759Z,99154.97
2023-08-29T20:44:35.244Z,99165.44
2023-08-29T20:47:02.028Z,99164.44
2023-08-29T20:49:30.432Z,99161.84
2023-08-29T20:51:57.022Z,99168.84
2023-08-29T20:54:23.654Z,99163.59
2023-08-29T20:56:50.465Z,99155.91
2023-08-29T20:59:19.181Z,99156.91
2023-08-29T21:01:49.221Z,99169.03
2023-08-29T21:04:15.961Z,99164.69
2023-08-29T21:06:42.607Z,99163.72
2023-08-29T21:09:11.730Z,99156.66
2023-08-29T21:11:38.655Z,99167.97
2023-08-29T21:14:05.313Z,99173.16
2023-08-29T21:16:32.432Z,99180.84
2023-08-29T21:18:59.313Z,99177.38
2023-08-29T21:21:25.928Z,99185.22
2023-08-29T21:23:52.632Z,99183.41
2023-08-29T21:26:19.286Z,99174.81
2023-08-29T21:28:45.966Z,99172.16
2023-08-29T21:31:12.589Z,99175.94
2023-08-29T21:33:39.218Z,99166.38
2023-08-29T21:36:05.982Z,99163.81
2023-08-29T21:38:34.282Z,99168.72
2023-08-29T21:41:06.276Z,99166.47
2023-08-29T21:43:33.018Z,99161.47
2023-08-29T21:46:00.573Z,99175.44
2023-08-29T21:48:30.817Z,99180.78
2023-08-29T21:53:44.549Z,99180.28
2023-08-29T21:56:12.007Z,99184.81
2023-08-29T21:58:38.675Z,99170.84
2023-08-29T22:01:05.467Z,99181.31
2023-08-29T22:03:32.115Z,99176.06
2023-08-29T22:05:58.766Z,99183.03
2023-08-29T22:08:27.476Z,99192.56
2023-08-29T22:10:54.359Z,99188.03
2023-08-29T22:13:21.069Z,99198.38
2023-08-29T22:15:49.845Z,99189.56
2023-08-29T22:18:16.530Z,99185.91
2023-08-29T22:20:43.150Z,99196.34
2023-08-29T22:23:09.743Z,99194.75
2023-08-29T22:25:36.507Z,99192.94
2023-08-29T22:28:03.217Z,99199.97
2023-08-29T22:30:29.856Z,99193.03
2023-08-29T22:32:56.913Z,99201.72
2023-08-29T22:35:23.585Z,99192.84
2023-08-29T22:37:50.202Z,99194.63
2023-08-29T22:40:17.724Z,99193.69
2023-08-29T22:42:45.909Z,99188.31
2023-08-29T22:45:13.473Z,99185.47
2023-08-29T22:47:40.113Z,99184.63
2023-08-29T22:50:07.535Z,99185.56
2023-08-29T22:52:34.144Z,99189.31
2023-08-29T22:55:00.803Z,99203.31
2023-08-29T22:57:27.382Z,99196.56
2023-08-29T22:59:53.958Z,99189.84
2023-08-29T23:02:20.698Z,99195.97
2023-08-29T23:04:47.290Z,99192.38
2023-08-29T23:07:13.940Z,99191.34
2023-08-29T23:09:43.742Z,99192.84
2023-08-29T23:12:10.393Z,99193.59
2023-08-29T23:14:36.993Z,99196.16
2023-08-29T23:17:06.014Z,99191.78
2023-08-29T23:19:32.630Z,99192.63
2023-08-29T23:21:59.361Z,99191.72
2023-08-29T23:24:25.969Z,99194.47
2023-08-29T23:26:55.258Z,99194.44
2023-08-29T23:29:21.859Z,99194.34
2023-08-29T23:31:48.500Z,99184.81
2023-08-29T23:34:15.147Z,99183.97
2023-08-29T23:36:41.748Z,99187.53
2023-08-29T23:39:08.559Z,99192.84
2023-08-29T23:41:35.393Z,99198.03
2023-08-29T23:44:02.611Z,99190.13
2023-08-29T23:46:29.345Z,99190.06
2023-08-29T23:48:56.037Z,99189.22
2023-08-29T23:51:23.550Z,99196.25
2023-08-29T23:53:51.156Z,99187.63
2023-08-29T23:56:18.264Z,99187.63
2023-08-29T23:58:45.314Z,99190.13
